createdAt,value
2023-01-21T00:03:18.607Z,25.9
2023-01-21T00:08:41.144Z,25.6
2023-01-21T00:14:03.660Z,25.2
2023-01-21T00:18:54.957Z,24.8
2023-01-21T00:24:17.505Z,25.1
2023-01-21T00:29:39.668Z,27.2
2023-01-21T00:35:04.747Z,25.6
2023-01-21T00:40:26.926Z,25.7
2023-01-21T00:45:49.941Z,25.3
2023-01-21T00:50:41.146Z,25.1
2023-01-21T00:55:48.549Z,24.6
2023-01-21T01:00:57.083Z,25.6
2023-01-21T01:06:19.825Z,27.4
2023-01-21T01:11:43.183Z,25.2
2023-01-21T01:16:50.408Z,25.5
2023-01-21T01:22:13.159Z,25.1
2023-01-21T01:27:36.247Z,25.1
2023-01-21T01:32:59.307Z,26.8
2023-01-21T01:38:21.869Z,25.3
2023-01-21T01:43:29.130Z,25
2023-01-21T01:48:52.146Z,25.2
2023-01-21T01:53:59.477Z,24.7
2023-01-21T01:59:22.170Z,26.1
2023-01-21T02:04:45.539Z,25.7
2023-01-21T02:10:07.867Z,24.8
2023-01-21T02:15:30.133Z,26.2
2023-01-21T02:20:53.408Z,25.8
2023-01-21T02:25:59.908Z,24.8
2023-01-21T02:31:27.354Z,25.9
2023-01-21T02:36:34.098Z,26.2
2023-01-21T02:41:57.034Z,24.9
2023-01-21T02:47:20.280Z,25.8
2023-01-21T02:52:43.574Z,27.1
2023-01-21T02:57:50.955Z,24.9
2023-01-21T03:02:58.293Z,25.6
2023-01-21T03:08:20.829Z,27.2
2023-01-21T03:13:27.515Z,25
2023-01-21T03:18:50.641Z,25.2
2023-01-21T03:24:13.548Z,26.9
2023-01-21T03:29:35.998Z,25.1
2023-01-21T03:34:59.272Z,24.8
2023-01-21T03:40:06.035Z,26.8
2023-01-21T03:45:13.006Z,25.3
2023-01-21T03:50:20.729Z,24.8
2023-01-21T03:55:43.274Z,26.3
2023-01-21T04:01:05.663Z,25.8
2023-01-21T04:06:13.471Z,24.8
2023-01-21T04:11:20.689Z,26
2023-01-21T04:16:47.285Z,26.4
2023-01-21T04:21:39.794Z,24.8
2023-01-21T04:27:05.216Z,25.8
2023-01-21T04:32:27.762Z,27.3
2023-01-21T04:37:50.038Z,24.9
2023-01-21T04:43:12.749Z,25.7
2023-01-21T04:48:35.070Z,27.2
2023-01-21T04:53:57.586Z,24.9
2023-01-21T04:59:05.874Z,25.6
2023-01-21T05:04:13.517Z,26.9
2023-01-21T05:09:37.048Z,25.1
2023-01-21T05:14:59.441Z,25
2023-01-21T05:20:07.035Z,26.7
2023-01-21T05:25:29.829Z,25.3
2023-01-21T05:30:52.980Z,24.8
2023-01-21T05:36:00.565Z,26.5
2023-01-21T05:41:08.197Z,27.6
2023-01-21T05:46:33.009Z,23.8
2023-01-21T05:51:55.783Z,25.3
2023-01-21T05:57:33.166Z,27.3
2023-01-21T06:02:40.221Z,24.9
2023-01-21T06:07:47.423Z,25.4
2023-01-21T06:13:10.425Z,26.9
2023-01-21T06:18:17.963Z,25
2023-01-21T06:23:40.849Z,24.9
2023-01-21T06:28:48.150Z,26.7
2023-01-21T06:34:11.671Z,25.3
2023-01-21T06:39:19.914Z,24.7
2023-01-21T06:44:43.703Z,26.4
2023-01-21T06:50:16.959Z,25.5
2023-01-21T06:55:24.370Z,24.8
2023-01-21T07:00:46.981Z,26.3
2023-01-21T07:06:10.164Z,25.8
2023-01-21T07:11:17.701Z,24.7
2023-01-21T07:16:26.000Z,25.3
2023-01-21T07:21:33.251Z,24.8
2023-01-21T07:26:56.613Z,24.6
2023-01-21T07:32:22.539Z,24.1
2023-01-21T07:37:44.909Z,24
2023-01-21T07:43:06.763Z,23.5
2023-01-21T07:48:31.799Z,24.7
2023-01-21T07:53:54.663Z,26.8
2023-01-21T07:59:17.137Z,24.8
2023-01-21T08:04:40.189Z,24.3
2023-01-21T08:10:02.837Z,24.8
2023-01-21T08:15:25.455Z,24.3
2023-01-21T08:20:48.153Z,24.2
2023-01-21T08:26:11.274Z,23.7
2023-01-21T08:31:33.801Z,23.6
2023-01-21T08:36:56.822Z,23.4
2023-01-21T08:42:19.724Z,25.3
2023-01-21T08:47:42.364Z,27.3
2023-01-21T08:53:05.844Z,24.3
2023-01-21T08:58:13.181Z,24.8
2023-01-21T09:03:20.878Z,24.6
2023-01-21T09:08:43.751Z,24.3
2023-01-21T09:14:06.369Z,23.9
2023-01-21T09:19:29.963Z,23.4
2023-01-21T09:24:52.945Z,24.7
2023-01-21T09:30:15.838Z,26.8
2023-01-21T09:34:55.318Z,24.4
2023-01-21T09:40:18.104Z,23.9
2023-01-21T09:45:41.253Z,23.9
2023-01-21T09:51:04.265Z,23.6
2023-01-21T09:56:27.608Z,23.3
2023-01-21T10:01:51.995Z,22.9
2023-01-21T10:07:15.101Z,23.6
2023-01-21T10:12:38.244Z,25.3
2023-01-21T10:18:01.166Z,23.6
2023-01-21T10:23:23.574Z,23.4
2023-01-21T10:28:49.177Z,23.1
2023-01-21T10:33:57.079Z,22.8
2023-01-21T10:39:06.509Z,22.4
2023-01-21T10:44:30.266Z,22.3
2023-01-21T10:49:54.608Z,24.9
2023-01-21T10:55:17.965Z,23.6
2023-01-21T11:00:42.563Z,23.3
2023-01-21T11:05:50.421Z,23.2
2023-01-21T11:11:13.353Z,22.9
2023-01-21T11:16:37.138Z,22.5
2023-01-21T11:22:02.782Z,22.1
2023-01-21T11:27:24.884Z,22.8
2023-01-21T11:32:41.104Z,25.2
2023-01-21T11:37:48.257Z,23.4
2023-01-21T11:43:11.284Z,23.3
2023-01-21T11:48:34.419Z,23.1
2023-01-21T11:53:57.792Z,22.8
2023-01-21T11:59:20.317Z,22.4
2023-01-21T12:04:43.361Z,22.1
2023-01-21T12:10:06.286Z,24.6
2023-01-21T12:15:30.830Z,23.6
2023-01-21T12:20:54.261Z,23.3
2023-01-21T12:26:16.659Z,23.1
2023-01-21T12:31:24.381Z,22.9
2023-01-21T12:36:47.529Z,22.6
2023-01-21T12:42:10.486Z,23.1
2023-01-21T12:47:34.032Z,25.3
2023-01-21T12:52:57.909Z,23.5
2023-01-21T12:58:22.079Z,23.3
2023-01-21T13:03:45.178Z,23
2023-01-21T13:09:10.458Z,22.8
2023-01-21T13:14:34.194Z,22.4
2023-01-21T13:19:41.948Z,22.1
2023-01-21T13:24:49.660Z,21.7
2023-01-21T13:30:14.103Z,22.6
2023-01-21T13:35:37.458Z,24.9
2023-01-21T13:40:59.730Z,23.4
2023-01-21T13:46:22.986Z,23.3
2023-01-21T13:51:45.757Z,23
2023-01-21T13:57:08.189Z,22.8
2023-01-21T14:02:31.639Z,22.4
2023-01-21T14:07:40.176Z,22.1
2023-01-21T14:13:02.998Z,21.7
2023-01-21T14:18:26.231Z,21.8
2023-01-21T14:23:33.324Z,24.3
2023-01-21T14:28:57.559Z,23.6
2023-01-21T14:34:20.884Z,23.2
2023-01-21T14:39:43.487Z,23
2023-01-21T14:45:09.072Z,22.7
2023-01-21T14:50:31.916Z,22.4
2023-01-21T14:55:55.068Z,22.1
2023-01-21T15:01:30.378Z,21.8
2023-01-21T15:06:54.654Z,21.4
2023-01-21T15:12:20.101Z,24.1
2023-01-21T15:17:44.719Z,23.6
2023-01-21T15:23:10.576Z,23.1
2023-01-21T15:28:32.317Z,22.9
2023-01-21T15:34:04.631Z,22.6
2023-01-21T15:39:27.765Z,22.3
2023-01-21T15:44:51.440Z,22
2023-01-21T15:50:24.051Z,21.7
2023-01-21T15:55:47.294Z,21.4
2023-01-21T16:01:09.462Z,23.3
2023-01-21T16:06:35.479Z,25.5
2023-01-21T16:11:58.161Z,23.1
2023-01-21T16:17:22.404Z,22.9
2023-01-21T16:22:47.426Z,22.7
2023-01-21T16:27:42.147Z,22.4
2023-01-21T16:32:50.842Z,22.1
2023-01-21T16:38:14.111Z,21.8
2023-01-21T16:43:36.758Z,21.6
2023-01-21T16:48:43.704Z,22.4
2023-01-21T16:54:07.215Z,24.5
2023-01-21T16:59:31.080Z,23.3
2023-01-21T17:04:54.255Z,22.9
2023-01-21T17:10:02.037Z,22.8
2023-01-21T17:15:25.548Z,22.6
2023-01-21T17:20:50.763Z,22.3
2023-01-21T17:26:14.259Z,21.9
2023-01-21T17:31:23.035Z,21.6
2023-01-21T17:36:32.906Z,22.1
2023-01-21T17:41:57.181Z,24.2
2023-01-21T17:47:21.857Z,23.4
2023-01-21T17:53:09.016Z,22.9
2023-01-21T17:58:38.437Z,22.8
2023-01-21T18:04:05.853Z,22.4
2023-01-21T18:09:01.181Z,22.2
2023-01-21T18:14:36.759Z,21.9
2023-01-21T18:20:03.158Z,21.6
2023-01-21T18:25:29.227Z,22.4
2023-01-21T18:30:56.337Z,24.5
2023-01-21T18:36:08.756Z,23.1
2023-01-21T18:41:19.693Z,22.9
2023-01-21T18:46:47.019Z,22.8
2023-01-21T18:52:13.216Z,22.5
2023-01-21T18:57:38.011Z,22.3
2023-01-21T19:03:05.844Z,21.9
2023-01-21T19:08:33.116Z,21.7
2023-01-21T19:14:01.896Z,22.7
2023-01-21T19:19:33.897Z,24.9
2023-01-21T19:25:05.339Z,23.1
2023-01-21T19:30:38.267Z,22.9
2023-01-21T19:36:09.640Z,22.7
2023-01-21T19:41:27.806Z,22.4
2023-01-21T19:47:08.343Z,22.1
2023-01-21T19:52:25.899Z,21.8
2023-01-21T19:57:58.232Z,21.5
2023-01-21T20:03:34.276Z,23.3
2023-01-21T20:09:12.348Z,25.6
2023-01-21T20:14:27.889Z,27.3
2023-01-21T20:19:54.968Z,23.3
2023-01-21T20:25:39.943Z,24.6
2023-01-21T20:31:26.273Z,26.6
2023-01-21T20:36:51.846Z,23.8
2023-01-21T20:42:16.631Z,23.4
2023-01-21T20:47:32.370Z,25
2023-01-21T20:53:01.905Z,27
2023-01-21T20:58:26.862Z,23.8
2023-01-21T21:03:39.385Z,23.6
2023-01-21T21:09:03.516Z,24.7
2023-01-21T21:14:14.109Z,26.7
2023-01-21T21:19:37.802Z,24.1
2023-01-21T21:24:45.947Z,23.7
2023-01-21T21:30:10.183Z,23.8
2023-01-21T21:35:34.222Z,25.8
2023-01-21T21:40:57.636Z,25.5
2023-01-21T21:46:21.065Z,23.8
2023-01-21T21:51:28.659Z,23.8
2023-01-21T21:56:52.025Z,24.6
2023-01-21T22:02:14.932Z,26.6
2023-01-21T22:07:37.932Z,24.3
2023-01-21T22:13:00.311Z,23.8
2023-01-21T22:18:24.238Z,23.8
2023-01-21T22:23:48.196Z,25.3
2023-01-21T22:29:11.047Z,27.3
2023-01-21T22:34:35.569Z,23.9
2023-01-21T22:39:58.431Z,23.9
2023-01-21T22:45:21.916Z,23.9
2023-01-21T22:50:29.555Z,25.8
2023-01-21T22:55:37.097Z,26
2023-01-21T23:01:06.207Z,23.9
2023-01-21T23:06:29.695Z,23.9
2023-01-21T23:11:53.566Z,24.3
2023-01-21T23:16:45.856Z,26.1
2023-01-21T23:22:08.653Z,25.5
2023-01-21T23:27:31.598Z,24
2023-01-21T23:32:24.138Z,23.9
2023-01-21T23:37:49.462Z,24.2
2023-01-21T23:43:11.596Z,26
2023-01-21T23:48:34.164Z,25.1
2023-01-21T23:53:57.582Z,24
2023-01-21T23:59:20.342Z,23.9
